Time;durP1;ratioP1;P1;durP2;ratioP2;P2;SDS_P1;SDS_P2;PMS_P1;PMS_P2;Temp;Humidity;BMP_temperature;BMP_pressure;BME280_temperature;BME280_humidity;BME280_pressure;Samples;Min_cycle;Max_cycle;Signal;HPM_P1;HPM_P2
2022/03/24 00:00:30;;;;;;;39.88;20.08;;;5.30;99.90;;;;;;5036211;28;20504;-78
2022/03/24 00:02:56;;;;;;;40.53;20.85;;;5.30;99.90;;;;;;5036126;28;20056;-77
2022/03/24 00:05:21;;;;;;;37.47;20.10;;;5.30;99.90;;;;;;5036072;28;20393;-77
2022/03/24 00:07:47;;;;;;;37.13;20.75;;;5.30;99.90;;;;;;5036072;28;20049;-77
2022/03/24 00:10:13;;;;;;;38.33;20.37;;;5.30;99.90;;;;;;5036065;28;20053;-76
2022/03/24 00:12:39;;;;;;;37.78;21.25;;;5.20;99.90;;;;;;5036070;28;20046;-77
2022/03/24 00:15:06;;;;;;;44.33;22.55;;;5.20;99.90;;;;;;5036428;28;20056;-77
2022/03/24 00:17:32;;;;;;;43.38;22.08;;;5.20;99.90;;;;;;5036096;28;20045;-77
2022/03/24 00:19:58;;;;;;;36.97;20.35;;;5.10;99.90;;;;;;5036045;28;20052;-77
2022/03/24 00:22:24;;;;;;;39.85;21.73;;;5.00;99.90;;;;;;5036055;28;20044;-77
2022/03/24 00:24:50;;;;;;;40.22;22.52;;;5.00;99.90;;;;;;5035972;28;20046;-76
2022/03/24 00:27:15;;;;;;;43.53;23.27;;;5.00;99.90;;;;;;5035815;28;20120;-77
2022/03/24 00:29:42;;;;;;;42.70;22.45;;;4.90;99.90;;;;;;5036650;28;20060;-76
2022/03/24 00:32:08;;;;;;;36.78;21.90;;;4.80;99.90;;;;;;5035757;28;20049;-77
2022/03/24 00:34:34;;;;;;;39.03;22.23;;;4.80;99.90;;;;;;5035720;28;20045;-77
2022/03/24 00:37:00;;;;;;;38.17;21.23;;;4.80;99.90;;;;;;5035658;28;20042;-77
2022/03/24 00:39:26;;;;;;;44.33;21.80;;;4.80;99.90;;;;;;5035762;28;20393;-77
2022/03/24 00:41:51;;;;;;;45.93;22.57;;;4.70;99.90;;;;;;5035727;28;20057;-77
2022/03/24 00:44:19;;;;;;;39.78;21.73;;;4.70;99.90;;;;;;5035455;28;20508;-76
2022/03/24 00:46:45;;;;;;;40.05;20.92;;;4.60;99.90;;;;;;5035770;28;20049;-77
2022/03/24 00:49:11;;;;;;;41.97;22.27;;;4.60;99.90;;;;;;5034901;28;20227;-77
2022/03/24 00:51:36;;;;;;;42.30;21.80;;;4.60;99.90;;;;;;5017998;28;20063;-77
2022/03/24 00:54:03;;;;;;;37.65;21.27;;;4.50;99.90;;;;;;5035312;28;20103;-76
2022/03/24 00:56:28;;;;;;;40.00;22.15;;;4.50;99.90;;;;;;5035247;28;20142;-77
2022/03/24 00:58:55;;;;;;;39.95;21.63;;;4.50;99.90;;;;;;5035183;28;20130;-76
2022/03/24 01:01:21;;;;;;;35.67;21.33;;;4.70;99.90;;;;;;5035182;28;20041;-77
2022/03/24 01:03:49;;;;;;;36.80;21.30;;;4.50;99.90;;;;;;5035142;28;20124;-77
2022/03/24 01:06:17;;;;;;;43.35;23.10;;;4.50;99.90;;;;;;5035217;28;20056;-77
2022/03/24 01:08:42;;;;;;;40.28;21.88;;;4.40;99.90;;;;;;5035077;28;20042;-77
2022/03/24 01:11:08;;;;;;;47.13;23.48;;;4.30;99.90;;;;;;5034905;28;20459;-77
2022/03/24 01:13:35;;;;;;;42.47;21.95;;;4.30;99.90;;;;;;5034976;28;20504;-77
2022/03/24 01:16:03;;;;;;;45.83;21.70;;;4.30;99.90;;;;;;5035032;28;20128;-76
2022/03/24 01:18:32;;;;;;;46.33;23.25;;;4.20;99.90;;;;;;5034792;28;20075;-76
2022/03/24 01:21:00;;;;;;;39.05;21.00;;;4.20;99.90;;;;;;5034949;28;20092;-76
2022/03/24 01:23:26;;;;;;;42.13;22.13;;;4.20;99.90;;;;;;5034669;28;20045;-77
2022/03/24 01:25:54;;;;;;;40.72;22.98;;;4.10;99.90;;;;;;5034628;28;20099;-76
2022/03/24 01:28:20;;;;;;;41.53;22.08;;;4.10;99.90;;;;;;5035037;28;20053;-76
2022/03/24 01:30:46;;;;;;;42.72;21.35;;;4.00;99.90;;;;;;5034635;28;20045;-77
2022/03/24 01:33:12;;;;;;;39.45;22.10;;;4.00;99.90;;;;;;5034601;28;20049;-76
2022/03/24 01:35:38;;;;;;;43.42;20.95;;;4.00;99.90;;;;;;5034783;28;20047;-77
2022/03/24 01:38:03;;;;;;;43.65;21.20;;;4.00;99.90;;;;;;5034396;28;20049;-76
2022/03/24 01:40:29;;;;;;;36.90;21.05;;;4.00;99.90;;;;;;5034447;28;20092;-76
2022/03/24 01:42:55;;;;;;;40.13;22.15;;;4.00;99.90;;;;;;5034355;28;20048;-76
2022/03/24 01:45:20;;;;;;;41.70;21.35;;;4.00;99.90;;;;;;5034171;28;20041;-76
2022/03/24 01:47:46;;;;;;;40.45;22.13;;;4.00;99.90;;;;;;5034227;28;20044;-76
2022/03/24 01:50:12;;;;;;;39.50;21.77;;;4.00;99.90;;;;;;5034278;28;20049;-77
2022/03/24 01:52:38;;;;;;;42.35;21.95;;;3.90;99.90;;;;;;5034260;28;20045;-77
2022/03/24 01:55:06;;;;;;;38.83;21.70;;;3.90;99.90;;;;;;5034111;28;20037;-76
2022/03/24 01:57:32;;;;;;;41.47;22.88;;;3.80;99.90;;;;;;5034056;28;20049;-77
2022/03/24 01:59:59;;;;;;;38.00;21.40;;;3.80;99.90;;;;;;5034003;28;20049;-76
2022/03/24 02:02:25;;;;;;;43.75;23.23;;;3.80;99.90;;;;;;5033570;28;20041;-76
2022/03/24 02:04:51;;;;;;;42.15;22.15;;;3.80;99.90;;;;;;5034011;28;20071;-77
2022/03/24 02:07:17;;;;;;;43.40;22.15;;;3.80;99.90;;;;;;5033954;28;20492;-77
2022/03/24 02:09:42;;;;;;;41.50;21.45;;;3.80;99.90;;;;;;5033954;28;20045;-77
2022/03/24 02:12:10;;;;;;;40.65;21.45;;;3.70;99.90;;;;;;5033921;28;20539;-76
2022/03/24 02:14:36;;;;;;;44.67;22.65;;;3.70;99.90;;;;;;5034260;28;20457;-76
2022/03/24 02:17:03;;;;;;;47.38;24.38;;;3.70;99.90;;;;;;5033787;28;20132;-76
2022/03/24 02:19:28;;;;;;;47.72;22.30;;;3.60;99.90;;;;;;5033873;28;20052;-76
2022/03/24 02:22:11;;;;;;;42.58;22.33;;;3.60;99.90;;;;;;5033726;28;20481;-77
2022/03/24 02:24:37;;;;;;;41.25;21.60;;;3.60;99.90;;;;;;5033836;28;20388;-76
2022/03/24 02:27:03;;;;;;;42.45;22.45;;;3.50;99.90;;;;;;5033702;28;20458;-76
2022/03/24 02:29:29;;;;;;;40.45;21.38;;;3.50;99.90;;;;;;5033497;28;20053;-77
2022/03/24 02:31:55;;;;;;;38.90;22.42;;;3.50;99.90;;;;;;5033887;28;20076;-76
2022/03/24 02:34:37;;;;;;;43.03;24.02;;;3.50;99.90;;;;;;5033608;28;20120;-77
2022/03/24 02:37:12;;;;;;;42.90;22.33;;;3.50;99.90;;;;;;5033561;28;20046;-77
2022/03/24 02:39:40;;;;;;;41.15;22.48;;;3.40;99.90;;;;;;5033252;28;20497;-76
2022/03/24 02:42:07;;;;;;;41.65;21.90;;;3.40;99.90;;;;;;5033651;28;20147;-77
2022/03/24 02:44:33;;;;;;;48.38;22.13;;;3.40;99.90;;;;;;5033730;28;20053;-76
2022/03/24 02:47:03;;;;;;;42.10;22.08;;;3.40;99.90;;;;;;5033126;28;20490;-76
2022/03/24 02:49:31;;;;;;;42.38;20.95;;;3.40;99.90;;;;;;5033805;28;20456;-76
2022/03/24 02:51:59;;;;;;;43.95;21.83;;;3.30;99.90;;;;;;5033459;28;20045;-76
2022/03/24 02:54:26;;;;;;;42.05;21.75;;;3.30;99.90;;;;;;5033520;28;20041;-76
2022/03/24 02:56:52;;;;;;;43.60;21.58;;;3.30;99.90;;;;;;5033477;28;20107;-76
2022/03/24 02:59:18;;;;;;;39.38;20.90;;;3.30;99.90;;;;;;5033233;28;20061;-76
2022/03/24 03:01:56;;;;;;;40.67;22.10;;;3.30;99.90;;;;;;5033277;28;20051;-77
2022/03/24 03:04:22;;;;;;;41.42;21.58;;;3.30;99.90;;;;;;5033827;28;20049;-77
2022/03/24 03:06:48;;;;;;;46.08;23.58;;;3.20;99.90;;;;;;5033364;28;20485;-76
2022/03/24 03:09:16;;;;;;;42.78;22.75;;;3.20;99.90;;;;;;5033271;28;20527;-76
2022/03/24 03:11:45;;;;;;;41.88;21.20;;;3.20;99.90;;;;;;5033381;28;20099;-76
2022/03/24 03:14:12;;;;;;;35.30;20.63;;;3.20;99.90;;;;;;5036622;28;20037;-77
2022/03/24 03:16:39;;;;;;;42.35;22.65;;;3.20;99.90;;;;;;5036744;28;20053;-76
2022/03/24 03:19:06;;;;;;;42.10;21.77;;;3.20;99.90;;;;;;5037066;28;20033;-76
2022/03/24 03:21:32;;;;;;;43.78;22.10;;;3.10;99.90;;;;;;5037068;28;20049;-75
2022/03/24 03:23:58;;;;;;;43.28;23.13;;;3.10;99.90;;;;;;5037037;28;20045;-76
2022/03/24 03:26:23;;;;;;;41.35;21.85;;;3.10;99.90;;;;;;5037308;28;20494;-76
2022/03/24 03:28:52;;;;;;;43.92;23.42;;;3.00;99.90;;;;;;5036881;28;20519;-76
2022/03/24 03:31:19;;;;;;;46.65;23.98;;;3.00;99.90;;;;;;5036654;28;20053;-77
2022/03/24 03:33:45;;;;;;;43.22;23.92;;;3.00;99.90;;;;;;5036838;28;20091;-76
2022/03/24 03:36:11;;;;;;;46.35;23.98;;;3.00;99.90;;;;;;5037218;28;20072;-76
2022/03/24 03:38:36;;;;;;;43.78;23.20;;;3.00;99.90;;;;;;5036622;28;20041;-77
2022/03/24 03:41:02;;;;;;;45.17;24.27;;;2.90;99.90;;;;;;5036738;28;20081;-76
2022/03/24 03:43:29;;;;;;;45.70;24.30;;;2.90;99.90;;;;;;5036702;28;20095;-76
2022/03/24 03:45:55;;;;;;;;;;;2.90;99.90;;;;;;5036892;28;20047;-75
2022/03/24 03:48:21;;;;;;;44.20;22.58;;;2.80;99.90;;;;;;5036431;28;20024;-75
2022/03/24 03:50:47;;;;;;;44.60;22.60;;;2.70;99.90;;;;;;5036539;28;20131;-76
2022/03/24 03:53:12;;;;;;;47.88;23.95;;;2.70;99.90;;;;;;5036735;28;20388;-75
2022/03/24 03:55:38;;;;;;;42.92;22.85;;;2.70;99.90;;;;;;5036432;28;20041;-75
2022/03/24 03:58:05;;;;;;;47.10;22.38;;;2.70;99.90;;;;;;5036309;28;20144;-75
2022/03/24 04:03:15;;;;;;;45.95;23.27;;;2.70;99.90;;;;;;5036702;28;20049;-75
2022/03/24 04:05:41;;;;;;;42.92;22.23;;;2.60;99.90;;;;;;5036491;28;20042;-75
2022/03/24 04:08:10;;;;;;;45.17;23.33;;;2.60;99.90;;;;;;5036478;28;20041;-75
2022/03/24 04:10:38;;;;;;;47.63;23.33;;;2.60;99.90;;;;;;5036095;28;20048;-75
2022/03/24 04:13:04;;;;;;;44.42;23.55;;;2.60;99.90;;;;;;5036085;28;20057;-76
2022/03/24 04:15:31;;;;;;;49.78;24.55;;;2.60;99.90;;;;;;5036140;28;20045;-75
2022/03/24 04:17:57;;;;;;;42.97;23.35;;;2.60;99.90;;;;;;5035947;28;20144;-75
2022/03/24 04:20:22;;;;;;;47.53;23.70;;;2.60;99.90;;;;;;5036089;28;20132;-75
2022/03/24 04:22:52;;;;;;;50.40;23.70;;;2.50;99.90;;;;;;5035992;28;20037;-76
2022/03/24 04:25:18;;;;;;;44.92;23.52;;;2.50;99.90;;;;;;5034652;28;20045;-76
2022/03/24 04:27:44;;;;;;;40.47;21.85;;;2.50;99.90;;;;;;5035763;28;20125;-76
2022/03/24 04:30:12;;;;;;;45.28;23.33;;;2.50;99.90;;;;;;5036374;28;20071;-75
2022/03/24 04:32:38;;;;;;;45.03;24.35;;;2.50;99.90;;;;;;5035731;28;20095;-75
2022/03/24 04:35:05;;;;;;;47.40;23.57;;;2.40;99.90;;;;;;5018107;28;20124;-76
2022/03/24 04:37:30;;;;;;;47.05;23.75;;;2.40;99.90;;;;;;5035539;28;20048;-76
2022/03/24 04:39:56;;;;;;;44.67;23.70;;;2.40;99.90;;;;;;5035639;28;20042;-75
2022/03/24 04:42:21;;;;;;;45.40;22.67;;;2.40;99.90;;;;;;5035441;28;20075;-76
2022/03/24 04:44:47;;;;;;;42.90;22.02;;;2.40;99.90;;;;;;5035535;28;20049;-76
2022/03/24 04:47:13;;;;;;;45.63;22.90;;;2.40;99.90;;;;;;5035330;28;20049;-75
2022/03/24 04:49:39;;;;;;;43.20;22.77;;;1.70;99.90;;;;;;5035423;28;20049;-76
2022/03/24 04:52:05;;;;;;;44.95;25.23;;;2.30;99.90;;;;;;5035437;28;20046;-76
2022/03/24 04:54:30;;;;;;;45.00;22.67;;;2.30;99.90;;;;;;5035348;28;20598;-76
2022/03/24 04:56:57;;;;;;;44.58;24.02;;;2.30;99.90;;;;;;5034865;28;20049;-75
2022/03/24 04:59:23;;;;;;;51.38;23.45;;;2.30;99.90;;;;;;5035164;28;20095;-76
2022/03/24 05:01:48;;;;;;;46.08;22.23;;;2.20;99.90;;;;;;5034945;28;20548;-76
2022/03/24 05:04:15;;;;;;;45.08;23.75;;;2.20;99.90;;;;;;5035151;28;20129;-76
2022/03/24 05:06:41;;;;;;;45.95;23.25;;;2.20;99.90;;;;;;5034987;28;20057;-75
2022/03/24 05:09:07;;;;;;;48.13;23.30;;;2.20;99.90;;;;;;5035125;28;20037;-75
2022/03/24 05:11:33;;;;;;;44.03;23.17;;;2.20;99.90;;;;;;5034888;28;20095;-76
2022/03/24 05:13:58;;;;;;;43.30;22.90;;;2.10;99.90;;;;;;5035265;28;20045;-75
2022/03/24 05:16:25;;;;;;;46.25;23.90;;;2.10;99.90;;;;;;5034866;28;20049;-76
2022/03/24 05:18:50;;;;;;;47.22;23.30;;;2.20;99.90;;;;;;5034772;28;20041;-76
2022/03/24 05:21:16;;;;;;;48.85;24.33;;;2.10;99.90;;;;;;5034813;28;20051;-76
2022/03/24 05:23:42;;;;;;;51.67;25.17;;;2.10;99.90;;;;;;5017130;28;20077;-76
2022/03/24 05:26:07;;;;;;;48.22;23.50;;;2.10;99.90;;;;;;5034583;28;20052;-76
2022/03/24 05:28:33;;;;;;;46.72;23.40;;;2.10;99.90;;;;;;5034971;28;20063;-76
2022/03/24 05:30:59;;;;;;;52.80;24.02;;;2.10;99.90;;;;;;5034709;28;20063;-76
2022/03/24 05:33:24;;;;;;;42.47;23.52;;;2.00;99.90;;;;;;5034806;28;20072;-75
2022/03/24 05:35:50;;;;;;;51.97;24.52;;;2.00;99.90;;;;;;5034318;28;20103;-76
2022/03/24 05:38:17;;;;;;;51.58;25.75;;;2.00;99.90;;;;;;5016783;28;20057;-74
2022/03/24 05:40:43;;;;;;;51.92;25.23;;;2.00;99.90;;;;;;5034267;28;20045;-74
2022/03/24 05:43:08;;;;;;;53.67;26.02;;;2.00;99.90;;;;;;5034274;28;20057;-74
2022/03/24 05:45:34;;;;;;;47.20;24.40;;;2.00;99.90;;;;;;5034330;28;20037;-74
2022/03/24 05:48:00;;;;;;;45.85;23.98;;;2.00;99.90;;;;;;5034332;28;20033;-75
2022/03/24 05:50:26;;;;;;;48.25;25.20;;;2.00;99.90;;;;;;5034494;28;20049;-76
2022/03/24 05:52:51;;;;;;;50.72;25.42;;;2.00;99.90;;;;;;5034093;28;20103;-76
2022/03/24 05:55:17;;;;;;;48.40;25.45;;;2.00;99.90;;;;;;5034165;28;20051;-76
2022/03/24 05:57:46;;;;;;;51.78;25.45;;;2.00;99.90;;;;;;5034487;28;20133;-78
2022/03/24 06:00:12;;;;;;;52.90;24.80;;;2.00;99.90;;;;;;5034071;28;20045;-75
2022/03/24 06:02:39;;;;;;;49.88;24.35;;;2.00;99.90;;;;;;5033955;28;20045;-75
2022/03/24 06:05:05;;;;;;;49.30;25.65;;;2.00;99.90;;;;;;5016720;28;20462;-78
2022/03/24 06:07:33;;;;;;;56.13;25.40;;;2.10;99.90;;;;;;5016430;28;20440;-76
2022/03/24 06:09:58;;;;;;;53.42;25.10;;;2.10;99.90;;;;;;5033837;28;20284;-77
2022/03/24 06:12:25;;;;;;;50.75;26.88;;;2.10;99.90;;;;;;5033888;28;20371;-77
2022/03/24 06:14:51;;;;;;;48.63;24.60;;;2.10;99.90;;;;;;5033928;28;20056;-76
2022/03/24 06:17:19;;;;;;;52.53;24.85;;;2.20;99.90;;;;;;5033792;28;20041;-77
2022/03/24 06:19:47;;;;;;;54.75;26.10;;;2.20;99.90;;;;;;5033808;28;20076;-77
2022/03/24 06:22:13;;;;;;;55.88;27.15;;;2.30;99.90;;;;;;5033500;28;20124;-77
2022/03/24 06:24:39;;;;;;;55.97;27.60;;;2.30;99.90;;;;;;5033678;28;20056;-78
2022/03/24 06:27:05;;;;;;;60.22;29.88;;;2.30;99.90;;;;;;5033717;28;20405;-77
2022/03/24 06:29:31;;;;;;;53.63;27.63;;;2.40;99.90;;;;;;5033825;28;20127;-77
2022/03/24 06:31:57;;;;;;;57.72;28.70;;;2.40;99.90;;;;;;5033597;28;20038;-78
2022/03/24 06:34:23;;;;;;;57.27;28.17;;;2.50;99.90;;;;;;5033355;28;20494;-78
2022/03/24 06:36:50;;;;;;;57.25;27.83;;;2.50;99.90;;;;;;5033595;28;20052;-75
2022/03/24 06:39:16;;;;;;;62.65;35.55;;;2.60;99.90;;;;;;5033476;28;20050;-75
2022/03/24 06:41:42;;;;;;;58.03;32.28;;;2.70;99.90;;;;;;5015880;28;20049;-75
2022/03/24 06:44:08;;;;;;;59.67;30.38;;;2.70;99.90;;;;;;5033515;28;20053;-75
2022/03/24 06:46:35;;;;;;;60.40;30.40;;;2.80;99.90;;;;;;5033657;28;20053;-75
2022/03/24 06:49:00;;;;;;;57.87;29.57;;;2.90;99.90;;;;;;5036886;28;20045;-76
2022/03/24 06:51:26;;;;;;;58.35;30.33;;;3.00;99.90;;;;;;5037533;28;20115;-76
2022/03/24 06:53:52;;;;;;;53.75;28.77;;;3.10;99.90;;;;;;5037550;28;20107;-75
2022/03/24 06:56:17;;;;;;;61.30;29.42;;;3.20;99.90;;;;;;5037487;28;20436;-75
2022/03/24 06:58:43;;;;;;;55.83;29.42;;;3.40;99.90;;;;;;5037775;28;20048;-76
2022/03/24 07:01:10;;;;;;;61.33;29.63;;;3.50;99.90;;;;;;5037650;28;20060;-77
2022/03/24 07:03:37;;;;;;;61.17;31.10;;;3.70;99.90;;;;;;5037284;28;20132;-74
2022/03/24 07:06:03;;;;;;;58.00;30.00;;;3.80;99.90;;;;;;5037399;28;20046;-77
2022/03/24 07:08:29;;;;;;;57.60;31.80;;;4.00;99.90;;;;;;5037135;28;20453;-74
2022/03/24 07:10:55;;;;;;;69.10;32.77;;;4.20;99.90;;;;;;5037642;28;20092;-73
2022/03/24 07:13:20;;;;;;;64.60;32.60;;;4.30;99.90;;;;;;5037527;28;20041;-76
2022/03/24 07:15:46;;;;;;;62.97;32.53;;;4.50;99.90;;;;;;5037161;28;20056;-76
2022/03/24 07:18:12;;;;;;;66.03;35.63;;;4.70;99.90;;;;;;5037022;28;20037;-76
2022/03/24 07:20:38;;;;;;;68.20;35.47;;;4.80;99.90;;;;;;5037001;28;20045;-76
2022/03/24 07:23:06;;;;;;;66.82;39.13;;;5.00;99.90;;;;;;5019175;28;20448;-78
2022/03/24 07:25:31;;;;;;;62.95;33.13;;;5.20;99.90;;;;;;5036952;28;20172;-78
2022/03/24 07:27:58;;;;;;;59.90;34.05;;;5.40;99.90;;;;;;5036548;28;20081;-75
2022/03/24 07:30:24;;;;;;;55.92;30.77;;;5.60;99.90;;;;;;5036863;28;20071;-78
2022/03/24 07:32:50;;;;;;;56.45;28.98;;;5.80;99.90;;;;;;5036785;28;20041;-77
2022/03/24 07:35:18;;;;;;;59.05;29.83;;;6.10;99.90;;;;;;5036675;28;20046;-76
2022/03/24 07:37:46;;;;;;;52.55;28.50;;;6.30;99.90;;;;;;5036956;28;20037;-76
2022/03/24 07:40:12;;;;;;;52.65;28.38;;;6.60;99.90;;;;;;5036741;28;20041;-75
2022/03/24 07:42:38;;;;;;;51.22;28.70;;;6.80;99.90;;;;;;5036694;28;20041;-77
2022/03/24 07:45:05;;;;;;;54.42;29.05;;;7.10;99.90;;;;;;5036562;28;20080;-78
2022/03/24 07:47:31;;;;;;;56.30;28.67;;;7.30;99.90;;;;;;5036417;28;20088;-78
2022/03/24 07:49:56;;;;;;;50.75;25.48;;;7.50;99.90;;;;;;5036338;28;20087;-77
2022/03/24 07:52:26;;;;;;;46.15;26.95;;;7.70;99.90;;;;;;5018547;28;20049;-76
2022/03/24 07:55:00;;;;;;;50.83;27.13;;;7.80;99.90;;;;;;5036195;28;20133;-76
2022/03/24 07:57:31;;;;;;;49.20;26.13;;;8.00;99.90;;;;;;5036178;28;20104;-74
2022/03/24 08:00:00;;;;;;;43.88;25.83;;;8.20;99.90;;;;;;5017664;28;20088;-75
2022/03/24 08:02:26;;;;;;;47.95;25.95;;;8.40;99.90;;;;;;5035997;28;20497;-77
2022/03/24 08:04:54;;;;;;;50.47;26.50;;;8.60;99.90;;;;;;5036148;28;20063;-77
2022/03/24 08:07:20;;;;;;;56.72;26.55;;;8.80;99.90;;;;;;5036146;28;20450;-76
2022/03/24 08:09:48;;;;;;;47.67;26.27;;;8.90;99.90;;;;;;5036055;28;20045;-74
2022/03/24 08:12:13;;;;;;;;;;;9.10;99.90;;;;;;5036136;28;20049;-76
2022/03/24 08:14:38;;;;;;;47.10;25.83;;;9.20;99.90;;;;;;5035904;28;19921;-74
2022/03/24 08:17:04;;;;;;;45.75;26.52;;;9.40;99.90;;;;;;5035934;28;20041;-76
2022/03/24 08:19:30;;;;;;;45.45;25.45;;;9.60;99.90;;;;;;5035558;28;20138;-75
2022/03/24 08:21:56;;;;;;;45.72;25.90;;;9.70;99.90;;;;;;5036192;28;20489;-77
2022/03/24 08:24:21;;;;;;;48.97;26.65;;;9.90;99.90;;;;;;5036246;28;20060;-76
2022/03/24 08:26:47;;;;;;;50.47;27.70;;;10.10;99.90;;;;;;5035914;28;20041;-77
2022/03/24 08:29:12;;;;;;;45.78;26.25;;;10.50;99.90;;;;;;5035809;28;20053;-75
2022/03/24 08:31:38;;;;;;;46.70;26.10;;;10.40;99.90;;;;;;5035889;28;20049;-76
2022/03/24 08:34:03;;;;;;;49.35;26.35;;;10.50;99.90;;;;;;5035784;28;20100;-76
2022/03/24 08:36:29;;;;;;;40.05;25.35;;;10.70;99.90;;;;;;5017831;28;20083;-75
2022/03/24 08:38:56;;;;;;;42.90;24.77;;;10.80;99.90;;;;;;5035525;28;20044;-76
2022/03/24 08:41:22;;;;;;;39.80;23.58;;;10.90;99.90;;;;;;5018586;28;20374;-76
2022/03/24 08:43:48;;;;;;;41.97;23.50;;;11.10;99.90;;;;;;5035516;28;20046;-76
2022/03/24 08:46:14;;;;;;;47.08;24.60;;;11.20;99.90;;;;;;5035565;28;20045;-76
2022/03/24 08:48:39;;;;;;;40.33;22.73;;;11.40;99.90;;;;;;5035485;28;20042;-75
2022/03/24 08:51:06;;;;;;;45.60;22.63;;;11.50;99.90;;;;;;5035340;28;20080;-76
2022/03/24 08:53:31;;;;;;;40.20;23.07;;;11.60;99.90;;;;;;5035802;28;20061;-76
2022/03/24 08:55:57;;;;;;;41.78;23.48;;;11.70;99.90;;;;;;5018305;28;20623;-75
2022/03/24 08:58:24;;;;;;;37.97;22.27;;;11.90;99.90;;;;;;5035114;28;20473;-78
2022/03/24 09:00:50;;;;;;;;;;;12.00;99.90;;;;;;5035660;28;20045;-77
2022/03/24 09:03:15;;;;;;;40.58;22.10;;;12.10;99.90;;;;;;5035292;28;19966;-77
2022/03/24 09:05:41;;;;;;;39.15;21.00;;;12.10;99.90;;;;;;5035166;28;20049;-77
2022/03/24 09:08:06;;;;;;;36.60;21.48;;;12.20;99.90;;;;;;5035108;28;20134;-77
2022/03/24 09:10:32;;;;;;;38.72;21.33;;;12.30;99.90;;;;;;5034663;28;20049;-77
2022/03/24 09:12:59;;;;;;;41.55;22.80;;;12.40;99.90;;;;;;5035004;28;20045;-77
2022/03/24 09:15:24;;;;;;;;;;;12.50;99.90;;;;;;5035197;28;20053;-77
2022/03/24 09:17:50;;;;;;;38.05;21.88;;;12.60;99.90;;;;;;5034849;28;20032;-77
2022/03/24 09:20:18;;;;;;;42.03;22.05;;;12.80;99.90;;;;;;5034797;28;20049;-77
2022/03/24 09:22:46;;;;;;;38.22;21.83;;;12.90;99.90;;;;;;5034829;28;20049;-77
2022/03/24 09:25:14;;;;;;;38.00;21.33;;;13.00;99.90;;;;;;5034707;28;20124;-77
2022/03/24 09:27:41;;;;;;;37.88;21.67;;;13.20;99.90;;;;;;5034704;28;20053;-77
2022/03/24 09:30:08;;;;;;;48.88;22.45;;;13.30;99.90;;;;;;5034717;28;20072;-77
2022/03/24 09:32:37;;;;;;;38.80;20.67;;;13.40;99.90;;;;;;5034599;28;20053;-77
2022/03/24 09:35:04;;;;;;;36.25;20.90;;;13.50;99.90;;;;;;5034471;28;20056;-77
2022/03/24 09:37:32;;;;;;;39.17;22.20;;;13.60;99.90;;;;;;5034483;28;20409;-76
2022/03/24 09:40:00;;;;;;;35.58;21.13;;;13.80;99.90;;;;;;5034474;28;20049;-77
2022/03/24 09:42:27;;;;;;;37.33;19.58;;;13.90;99.90;;;;;;5034398;28;20132;-76
2022/03/24 09:45:03;;;;;;;32.08;19.05;;;14.10;99.90;;;;;;5034305;28;20052;-77
2022/03/24 09:47:29;;;;;;;30.92;17.98;;;14.20;99.90;;;;;;5034309;28;20037;-77
2022/03/24 09:49:56;;;;;;;32.38;18.17;;;14.30;99.40;;;;;;5034178;28;20485;-77
2022/03/24 09:52:22;;;;;;;31.60;18.25;;;14.40;98.70;;;;;;5034186;28;20370;-77
2022/03/24 09:54:48;;;;;;;32.25;18.38;;;14.50;97.10;;;;;;5034217;28;20147;-77
2022/03/24 09:57:14;;;;;;;30.17;18.10;;;14.60;96.60;;;;;;5033794;28;20053;-76
2022/03/24 09:59:42;;;;;;;35.80;18.75;;;14.60;96.20;;;;;;5033844;28;20280;-76
2022/03/24 10:02:08;;;;;;;32.33;19.27;;;14.70;96.00;;;;;;5033894;28;20397;-76
2022/03/24 10:04:48;;;;;;;32.40;18.50;;;14.80;96.70;;;;;;5033999;28;20041;-77
2022/03/24 10:07:16;;;;;;;32.35;18.88;;;14.90;96.40;;;;;;5033898;28;20041;-75
2022/03/24 10:09:44;;;;;;;39.92;19.80;;;15.00;94.50;;;;;;5033968;28;20140;-77
2022/03/24 10:12:23;;;;;;;33.65;18.80;;;15.10;96.50;;;;;;5033834;28;20400;-77
2022/03/24 10:14:59;;;;;;;36.10;20.38;;;15.20;95.70;;;;;;5034052;28;20057;-78
2022/03/24 10:17:25;;;;;;;37.42;19.27;;;15.30;95.10;;;;;;5033618;28;20400;-77
2022/03/24 10:20:05;;;;;;;32.43;18.13;;;15.30;95.00;;;;;;5033544;28;20046;-75
2022/03/24 10:22:32;;;;;;;30.67;19.08;;;15.40;95.10;;;;;;5032740;28;20367;-77
2022/03/24 10:24:58;;;;;;;34.33;19.05;;;15.30;93.10;;;;;;5033454;28;20045;-78
2022/03/24 10:27:29;;;;;;;29.67;19.27;;;15.40;92.70;;;;;;5016118;28;20140;-77
2022/03/24 10:29:56;;;;;;;40.80;19.88;;;15.40;93.40;;;;;;5033750;28;20493;-77
2022/03/24 10:32:30;;;;;;;33.75;19.95;;;15.40;92.60;;;;;;5033863;28;20409;-77
2022/03/24 10:34:58;;;;;;;35.03;19.65;;;15.50;93.80;;;;;;5033622;28;20057;-76
2022/03/24 10:37:26;;;;;;;30.70;20.60;;;15.70;93.20;;;;;;5033244;28;20089;-77
2022/03/24 10:40:06;;;;;;;34.28;19.85;;;15.80;93.40;;;;;;5032917;28;20136;-77
2022/03/24 10:42:37;;;;;;;32.15;20.27;;;15.90;91.70;;;;;;5033532;28;20167;-77
2022/03/24 10:45:12;;;;;;;31.30;19.13;;;15.90;90.90;;;;;;5033774;28;20045;-77
2022/03/24 10:47:49;;;;;;;39.17;19.77;;;15.90;91.80;;;;;;5033658;28;20051;-77
2022/03/24 10:50:39;;;;;;;33.00;19.63;;;16.00;92.30;;;;;;5033395;28;20045;-78
2022/03/24 10:53:15;;;;;;;35.30;19.75;;;16.10;90.70;;;;;;5033608;28;20045;-78
2022/03/24 10:55:43;;;;;;;31.55;19.25;;;16.20;91.90;;;;;;5033583;28;20408;-77
2022/03/24 10:58:29;;;;;;;29.50;17.35;;;16.30;92.20;;;;;;5033545;28;20045;-77
2022/03/24 11:01:01;;;;;;;27.98;18.05;;;16.40;91.20;;;;;;5033399;28;20048;-77
2022/03/24 11:03:27;;;;;;;31.45;18.80;;;16.40;90.80;;;;;;5033172;28;20511;-78
2022/03/24 11:06:09;;;;;;;29.05;18.23;;;16.50;90.20;;;;;;5033397;28;20041;-77
2022/03/24 11:08:35;;;;;;;32.30;19.52;;;16.60;89.70;;;;;;5033449;28;20041;-77
2022/03/24 11:11:07;;;;;;;29.57;17.97;;;16.70;88.90;;;;;;5032917;28;20083;-76
2022/03/24 11:13:46;;;;;;;28.50;18.45;;;16.80;89.60;;;;;;5033043;28;20477;-76
2022/03/24 11:16:12;;;;;;;30.90;18.25;;;16.90;88.50;;;;;;5034107;28;20053;-78
2022/03/24 11:18:39;;;;;;;27.70;17.60;;;17.00;88.20;;;;;;5034520;28;20041;-76
2022/03/24 11:21:09;;;;;;;;;;;17.00;84.60;;;;;;5033671;28;20128;-77
2022/03/24 11:23:39;;;;;;;28.73;16.98;;;17.10;82.00;;;;;;5032790;28;20450;-77
2022/03/24 11:26:07;;;;;;;29.95;17.67;;;17.10;84.60;;;;;;5033898;28;20397;-77
2022/03/24 11:28:36;;;;;;;29.70;17.45;;;17.30;84.40;;;;;;5033086;28;20058;-77
2022/03/24 11:31:05;;;;;;;28.42;17.13;;;17.40;82.00;;;;;;5033150;28;20049;-77
2022/03/24 11:33:40;;;;;;;25.67;16.60;;;17.50;81.20;;;;;;5033929;28;20056;-77
2022/03/24 11:36:08;;;;;;;23.52;15.85;;;17.40;75.30;;;;;;5036812;28;20048;-77
2022/03/24 11:38:35;;;;;;;24.50;16.35;;;17.50;71.60;;;;;;5036682;28;20045;-77
2022/03/24 11:41:12;;;;;;;;;;;17.60;75.60;;;;;;5037497;28;20404;-77
2022/03/24 11:43:43;;;;;;;28.60;18.13;;;17.60;75.20;;;;;;5036998;28;19928;-77
2022/03/24 11:46:19;;;;;;;28.38;17.77;;;17.70;76.40;;;;;;5036348;28;20077;-77
2022/03/24 11:48:45;;;;;;;25.33;16.55;;;17.80;76.80;;;;;;5036564;28;20052;-77
2022/03/24 11:51:20;;;;;;;25.97;16.83;;;17.90;77.00;;;;;;5036390;28;20136;-77
2022/03/24 11:53:59;;;;;;;26.25;17.15;;;17.90;71.70;;;;;;5036550;28;20045;-76
2022/03/24 11:56:24;;;;;;;24.65;16.08;;;18.00;73.70;;;;;;5036255;28;20064;-77
2022/03/24 11:58:53;;;;;;;25.47;17.63;;;18.00;72.50;;;;;;5036382;28;20072;-76
2022/03/24 12:01:19;;;;;;;25.00;16.73;;;18.00;70.30;;;;;;5036215;28;20041;-77
2022/03/24 12:03:44;;;;;;;25.95;16.13;;;18.10;73.40;;;;;;5036102;28;20511;-77
2022/03/24 12:06:13;;;;;;;26.57;17.23;;;18.20;71.70;;;;;;5036599;28;20045;-77
2022/03/24 12:09:01;;;;;;;29.63;16.50;;;18.20;71.60;;;;;;5036187;28;20127;-77
2022/03/24 12:11:32;;;;;;;20.80;14.38;;;18.30;71.20;;;;;;5036193;28;20050;-77
2022/03/24 12:14:07;;;;;;;23.25;16.23;;;18.40;68.70;;;;;;5036011;28;20049;-78
2022/03/24 12:16:37;;;;;;;21.75;14.60;;;18.40;69.90;;;;;;5036025;28;20052;-78
2022/03/24 12:19:03;;;;;;;24.15;15.30;;;18.50;68.70;;;;;;5036093;28;20492;-78
2022/03/24 12:21:30;;;;;;;21.17;13.97;;;18.50;67.10;;;;;;5035946;28;20092;-77
2022/03/24 12:24:01;;;;;;;21.45;14.52;;;18.30;63.10;;;;;;5035970;28;20501;-78
2022/03/24 12:26:28;;;;;;;20.92;13.85;;;18.30;63.50;;;;;;5035980;28;20045;-78
2022/03/24 12:29:09;;;;;;;;;;;18.40;66.40;;;;;;5019087;28;20099;-78
2022/03/24 12:32:01;;;;;;;24.25;13.75;;;18.50;64.70;;;;;;5035851;28;20012;-78
2022/03/24 12:34:38;;;;;;;19.25;14.05;;;18.60;62.70;;;;;;5035819;28;20091;-78
2022/03/24 12:37:05;;;;;;;;;;;18.60;59.60;;;;;;5036580;28;20052;-78
2022/03/24 12:39:36;;;;;;;19.77;14.05;;;18.70;61.70;;;;;;5035457;28;20019;-78